createdAt,value
2022-10-07T03:03:06.396Z,9.02
2022-10-07T03:08:09.882Z,8.75
2022-10-07T03:13:11.563Z,8.75
2022-10-07T03:18:14.593Z,8.40
2022-10-07T03:23:16.281Z,8.45
2022-10-07T03:28:18.372Z,8.75
2022-10-07T03:33:22.201Z,9.20
2022-10-07T03:38:23.897Z,8.68
2022-10-07T03:43:25.667Z,9.40
2022-10-07T03:48:28.987Z,10.07
2022-10-07T04:00:00.255Z,11.50
2022-10-07T04:05:24.334Z,8.65
2022-10-07T04:10:26.318Z,12.35
2022-10-07T04:15:37.767Z,13.02
2022-10-07T04:20:41.384Z,13.18
2022-10-07T04:25:43.798Z,10.60
2022-10-07T04:30:45.982Z,11.18
2022-10-07T04:35:49.635Z,12.13
2022-10-07T04:40:51.324Z,9.25
2022-10-07T04:51:34.280Z,8.98
2022-10-07T04:56:35.965Z,9.60
2022-10-07T05:01:37.793Z,12.35
2022-10-07T05:06:40.994Z,8.88
2022-10-07T05:11:42.814Z,20.65
2022-10-07T05:16:44.637Z,12.07
2022-10-07T05:21:47.776Z,11.88
2022-10-07T05:26:50.620Z,14.90
2022-10-07T05:31:52.411Z,11.95
2022-10-07T05:36:55.705Z,18.92
2022-10-07T05:41:57.503Z,13.48
2022-10-07T05:46:59.334Z,13.15
2022-10-07T05:52:02.655Z,13.15
2022-10-07T05:57:04.447Z,13.15
2022-10-07T06:02:06.545Z,18.17
2022-10-07T06:07:11.505Z,12.60
2022-10-07T06:12:13.307Z,79.35
2022-10-07T06:17:15.226Z,14.27
2022-10-07T06:22:18.386Z,12.95
2022-10-07T06:27:20.641Z,13.43
2022-10-07T06:32:22.383Z,9.13
2022-10-07T06:37:25.507Z,16.55
2022-10-07T06:42:27.247Z,11.15
2022-10-07T06:47:28.939Z,15.57
2022-10-07T06:52:32.050Z,18.08
2022-10-07T06:57:45.366Z,15.73
2022-10-07T07:02:47.691Z,20.37
2022-10-07T07:07:50.934Z,16.05
2022-10-07T07:12:53.226Z,9.75
2022-10-07T07:17:54.950Z,14.00
2022-10-07T07:22:58.178Z,15.23
2022-10-07T07:28:00.197Z,17.12
2022-10-07T07:33:01.996Z,16.15
2022-10-07T07:38:05.383Z,18.02
2022-10-07T07:43:07.503Z,19.05
2022-10-07T07:48:09.287Z,15.20
2022-10-07T07:53:12.358Z,12.68
2022-10-07T07:58:14.045Z,19.02
2022-10-07T08:03:15.816Z,13.60
2022-10-07T08:08:54.101Z,19.35
2022-10-07T08:19:10.824Z,12.75
2022-10-07T08:24:13.969Z,12.32
2022-10-07T08:29:16.190Z,24.60
2022-10-07T08:34:18.356Z,11.57
2022-10-07T08:39:21.618Z,12.77
2022-10-07T08:44:27.575Z,13.43
2022-10-07T08:50:00.041Z,13.32
2022-10-07T08:55:14.024Z,16.65
2022-10-07T09:00:20.103Z,12.32
2022-10-07T09:05:27.894Z,12.32
2022-10-07T09:10:34.273Z,12.88
2022-10-07T09:15:41.549Z,12.30
2022-10-07T09:20:48.742Z,15.90
2022-10-07T09:25:52.340Z,8.88
2022-10-07T09:30:54.298Z,13.70
2022-10-07T09:35:58.156Z,9.13
2022-10-07T09:41:10.229Z,13.62
2022-10-07T09:46:36.381Z,10.13
2022-10-07T09:51:38.148Z,16.17
2022-10-07T09:56:50.857Z,18.60
2022-10-07T10:01:57.730Z,12.57
2022-10-07T10:07:04.509Z,14.02
2022-10-07T10:12:15.468Z,13.77
2022-10-07T10:17:30.592Z,7.97
2022-10-07T10:22:32.312Z,11.05
2022-10-07T10:27:44.298Z,11.45
2022-10-07T10:33:06.221Z,13.18
2022-10-07T10:38:25.398Z,13.32
2022-10-07T10:43:33.944Z,8.00
2022-10-07T10:48:43.039Z,10.75
2022-10-07T10:53:54.201Z,9.90
2022-10-07T10:59:23.389Z,7.87
2022-10-07T11:04:41.727Z,10.15
2022-10-07T11:09:48.256Z,10.35
2022-10-07T11:15:32.241Z,11.98
2022-10-07T11:20:49.294Z,11.93
2022-10-07T11:31:38.501Z,14.57
2022-10-07T11:36:47.616Z,9.95
2022-10-07T11:41:56.095Z,9.45
2022-10-07T11:47:03.033Z,7.53
2022-10-07T11:52:08.250Z,7.22
2022-10-07T11:57:20.627Z,13.77
2022-10-07T12:02:45.787Z,6.80
2022-10-07T12:08:05.611Z,10.48
2022-10-07T12:13:36.736Z,11.15
2022-10-07T12:19:23.271Z,15.13
2022-10-07T12:24:26.869Z,154.87
2022-10-07T12:29:33.042Z,48.42
2022-10-07T12:35:15.730Z,12.27
2022-10-07T12:40:34.400Z,10.38
2022-10-07T12:45:40.621Z,10.52
2022-10-07T12:50:44.263Z,0.20
2022-10-07T12:55:50.490Z,0.30
2022-10-07T13:01:09.205Z,0.30
2022-10-07T13:06:50.924Z,16.27
2022-10-07T13:12:33.388Z,0.25
2022-10-07T13:17:43.807Z,0.20
2022-10-07T13:22:46.961Z,13.60
2022-10-07T13:27:54.578Z,8.00
2022-10-07T13:33:11.343Z,5.35
2022-10-07T13:38:23.875Z,4.72
2022-10-07T13:43:28.560Z,0.20
2022-10-07T13:48:34.295Z,0.95
2022-10-07T13:53:37.385Z,340.50
2022-10-07T13:58:40.640Z,0.50
2022-10-07T14:04:09.035Z,36.53
2022-10-07T14:09:18.291Z,23.98
2022-10-07T14:14:23.665Z,1.25
2022-10-07T14:19:27.903Z,37.50
2022-10-07T14:24:30.860Z,5.10
2022-10-07T14:29:37.307Z,1.90
2022-10-07T14:34:43.971Z,0.20
2022-10-07T14:39:47.645Z,21.52
2022-10-07T14:44:51.747Z,8.23
2022-10-07T14:49:55.069Z,6.03
2022-10-07T14:54:58.646Z,84.28
2022-10-07T15:00:01.880Z,100.25
2022-10-07T15:05:04.078Z,0.60
2022-10-07T15:10:20.933Z,3.87
2022-10-07T15:15:24.196Z,0.60
2022-10-07T15:25:58.738Z,2.65
2022-10-07T15:53:19.523Z,17.45
2022-10-07T15:58:23.972Z,19.12
2022-10-07T16:14:52.704Z,5.60
2022-10-07T16:20:00.735Z,1999.90
2022-10-07T16:25:02.732Z,1999.90
2022-10-07T16:35:42.768Z,1999.90
2022-10-07T16:40:51.865Z,1999.90
2022-10-07T16:51:19.706Z,1999.90
2022-10-07T16:56:23.100Z,1999.90
2022-10-07T17:01:29.696Z,1999.90
2022-10-07T17:06:32.508Z,325.58
2022-10-07T17:11:36.532Z,20.67
2022-10-07T17:16:42.000Z,15.07
2022-10-07T17:21:44.950Z,11.82
2022-10-07T17:26:47.575Z,12.27
2022-10-07T17:31:50.935Z,10.02
2022-10-07T17:36:52.944Z,13.30
2022-10-07T17:41:54.730Z,10.68
2022-10-07T17:46:58.172Z,11.95
2022-10-07T17:52:08.408Z,14.43
2022-10-07T18:02:43.625Z,10.70
2022-10-07T18:07:45.785Z,14.02
2022-10-07T18:12:47.676Z,10.23
2022-10-07T18:17:52.085Z,16.52
2022-10-07T18:22:54.659Z,12.80
2022-10-07T18:27:56.399Z,10.45
2022-10-07T18:33:00.337Z,10.85
2022-10-07T18:38:06.759Z,12.37
2022-10-07T18:43:08.548Z,11.27
2022-10-07T18:48:28.080Z,8.60
2022-10-07T18:58:48.345Z,9.48
2022-10-07T19:04:13.196Z,10.70
2022-10-07T19:09:16.850Z,11.80
2022-10-07T19:14:20.537Z,10.85
2022-10-07T19:19:49.568Z,10.27
2022-10-07T19:24:51.359Z,12.85
2022-10-07T19:29:53.145Z,15.57
2022-10-07T19:35:04.365Z,9.85
2022-10-07T19:40:07.060Z,12.07
2022-10-07T19:45:09.767Z,13.15
2022-10-07T19:50:12.900Z,10.73
2022-10-07T19:55:14.867Z,13.30
2022-10-07T20:00:27.685Z,12.35
2022-10-07T20:05:30.892Z,13.57
2022-10-07T20:16:02.109Z,13.43
2022-10-07T20:21:07.416Z,17.00
2022-10-07T20:26:11.409Z,13.93
2022-10-07T20:31:45.612Z,17.60
2022-10-07T20:36:49.052Z,16.20
2022-10-07T20:41:51.762Z,17.67
2022-10-07T20:46:53.598Z,18.27
2022-10-07T20:51:59.085Z,17.02
2022-10-07T20:57:11.216Z,14.15
2022-10-07T21:02:29.895Z,14.05
2022-10-07T21:07:33.136Z,13.07
2022-10-07T21:12:34.998Z,13.60
